createdAt,value
2017-09-14T00:00:36.388Z,11.2
2017-09-14T00:01:38.806Z,3.9
2017-09-14T00:02:41.938Z,7.4
2017-09-14T00:03:43.637Z,9.0
2017-09-14T00:04:46.241Z,9.0
2017-09-14T00:05:52.563Z,7.7
2017-09-14T00:06:55.333Z,8.0
2017-09-14T00:07:57.399Z,10.0
2017-09-14T00:09:00.017Z,9.4
2017-09-14T00:10:02.334Z,11.3
2017-09-14T00:11:04.425Z,8.4
2017-09-14T00:12:08.451Z,8.1
2017-09-14T00:13:10.893Z,7.1
2017-09-14T00:14:14.140Z,8.1
2017-09-14T00:15:18.545Z,8.2
2017-09-14T00:16:21.161Z,9.9
2017-09-14T00:17:25.139Z,7.1
2017-09-14T00:18:33.171Z,6.2
2017-09-14T00:19:35.485Z,9.9
2017-09-14T00:20:39.435Z,5.9
2017-09-14T00:21:42.368Z,6.3
2017-09-14T00:22:44.752Z,6.8
2017-09-14T00:23:48.048Z,7.1
2017-09-14T00:24:51.192Z,9.9
2017-09-14T00:25:56.696Z,7.8
2017-09-14T00:26:59.310Z,8.1
2017-09-14T00:28:06.652Z,10.4
2017-09-14T00:29:11.546Z,8.0
2017-09-14T00:30:13.044Z,7.4
2017-09-14T00:31:14.707Z,8.6
2017-09-14T00:32:18.628Z,8.0
2017-09-14T00:33:21.134Z,9.2
2017-09-14T00:34:23.396Z,6.3
2017-09-14T00:35:26.271Z,8.1
2017-09-14T00:36:29.183Z,7.7
2017-09-14T00:37:30.847Z,11.1
2017-09-14T00:38:33.650Z,11.2
2017-09-14T00:39:37.193Z,8.3
2017-09-14T00:40:40.288Z,9.9
2017-09-14T00:41:42.755Z,7.4
2017-09-14T00:42:46.163Z,6.2
2017-09-14T00:43:52.048Z,7.4
2017-09-14T00:44:53.811Z,6.0
2017-09-14T00:45:58.100Z,9.6
2017-09-14T00:47:04.160Z,8.9
2017-09-14T00:48:06.654Z,8.4
2017-09-14T00:49:09.755Z,9.3
2017-09-14T00:50:14.852Z,7.0
2017-09-14T00:51:18.548Z,9.5
2017-09-14T00:52:21.549Z,8.7
2017-09-14T00:53:26.269Z,11.0
2017-09-14T00:54:31.185Z,6.5
2017-09-14T00:55:35.430Z,6.9
2017-09-14T00:56:37.081Z,6.4
2017-09-14T00:57:39.635Z,5.2
2017-09-14T00:58:42.979Z,9.0
2017-09-14T00:59:47.606Z,7.8
2017-09-14T01:00:52.271Z,7.8
2017-09-14T01:01:55.221Z,8.1
2017-09-14T01:02:57.852Z,6.8
2017-09-14T01:04:00.523Z,10.4
2017-09-14T01:05:04.672Z,6.8
2017-09-14T01:06:10.098Z,7.2
2017-09-14T01:07:13.627Z,8.9
2017-09-14T01:08:17.287Z,6.2
2017-09-14T01:09:19.628Z,8.4
2017-09-14T01:10:23.550Z,8.5
2017-09-14T01:11:24.435Z,9.0
2017-09-14T01:12:28.589Z,8.6
2017-09-14T01:13:31.578Z,7.2
2017-09-14T01:14:34.700Z,9.1
2017-09-14T01:15:39.549Z,6.5
2017-09-14T01:16:42.619Z,6.4
2017-09-14T01:17:44.869Z,10.1
2017-09-14T01:18:50.048Z,7.7
2017-09-14T01:19:51.613Z,11.9
2017-09-14T01:20:54.773Z,6.4
2017-09-14T01:21:58.762Z,8.0
2017-09-14T01:23:02.148Z,8.7
2017-09-14T01:24:04.448Z,6.0
2017-09-14T01:25:08.773Z,6.5
2017-09-14T01:26:10.428Z,12.2
2017-09-14T01:27:14.307Z,7.1
2017-09-14T01:28:18.288Z,9.0
2017-09-14T01:29:21.511Z,9.2
2017-09-14T01:30:23.160Z,7.4
2017-09-14T01:31:27.106Z,10.0
2017-09-14T01:32:31.093Z,9.2
2017-09-14T01:33:34.357Z,7.4
2017-09-14T01:34:39.055Z,13.2
2017-09-14T01:35:41.792Z,5.4
2017-09-14T01:36:45.116Z,7.6
2017-09-14T01:37:48.211Z,7.8
2017-09-14T01:38:53.118Z,8.6
2017-09-14T01:39:56.697Z,9.5
2017-09-14T01:41:02.185Z,6.5
2017-09-14T01:42:05.258Z,5.7
2017-09-14T01:43:08.383Z,9.0
2017-09-14T01:44:10.041Z,9.0
2017-09-14T01:45:12.664Z,9.1
2017-09-14T01:46:14.310Z,9.4
2017-09-14T01:47:18.166Z,7.5
2017-09-14T01:48:21.469Z,8.4
2017-09-14T01:49:24.553Z,10.2
2017-09-14T01:50:26.237Z,9.3
2017-09-14T01:51:29.176Z,8.4
2017-09-14T01:52:31.403Z,6.9
2017-09-14T01:53:33.790Z,7.2
2017-09-14T01:54:36.270Z,7.7
2017-09-14T01:55:40.221Z,9.6
2017-09-14T02:01:48.228Z,4.0
2017-09-14T06:01:28.404Z,6.0
2017-09-14T06:02:29.360Z,11.8
2017-09-14T06:03:32.176Z,15.1
2017-09-14T06:04:35.601Z,14.4
2017-09-14T06:05:37.872Z,14.9
2017-09-14T06:06:40.576Z,16.7
2017-09-14T06:07:44.059Z,13.2
2017-09-14T06:08:45.714Z,9.3
2017-09-14T06:09:49.011Z,9.6
2017-09-14T06:10:53.131Z,9.8
2017-09-14T06:11:57.131Z,10.6
2017-09-14T06:12:58.787Z,10.3
2017-09-14T06:14:02.407Z,16.2
2017-09-14T06:15:03.773Z,13.6
2017-09-14T06:16:08.460Z,15.8
2017-09-14T06:17:11.046Z,7.9
2017-09-14T06:18:14.213Z,13.1
2017-09-14T06:19:17.577Z,13.6
2017-09-14T06:20:24.476Z,11.6
2017-09-14T06:21:27.529Z,11.8
2017-09-14T06:22:29.196Z,9.8
2017-09-14T06:23:31.826Z,7.9
2017-09-14T06:24:37.955Z,14.7
2017-09-14T06:25:44.133Z,12.3
2017-09-14T06:26:47.159Z,17.9
2017-09-14T06:27:48.812Z,12.4
2017-09-14T06:28:51.376Z,14.4
2017-09-14T06:29:54.576Z,12.3
2017-09-14T06:30:57.614Z,13.5
2017-09-14T06:32:01.908Z,11.9
2017-09-14T06:33:03.536Z,5.4
2017-09-14T06:34:05.767Z,11.4
2017-09-14T06:35:09.499Z,14.0
2017-09-14T06:36:12.540Z,15.0
2017-09-14T06:37:14.948Z,14.0
2017-09-14T06:38:18.535Z,12.8
2017-09-14T06:39:23.015Z,19.6
2017-09-14T06:40:26.973Z,10.5
2017-09-14T06:41:31.230Z,13.8
2017-09-14T06:42:34.501Z,10.8
2017-09-14T06:43:36.160Z,12.8
2017-09-14T06:44:39.408Z,12.9
2017-09-14T06:45:41.564Z,11.1
2017-09-14T06:46:43.916Z,12.9
2017-09-14T06:47:47.075Z,10.7
2017-09-14T06:48:52.532Z,15.5
2017-09-14T06:49:56.015Z,11.3
2017-09-14T06:51:00.155Z,11.7
2017-09-14T06:52:02.598Z,10.7
2017-09-14T06:53:05.013Z,8.5
2017-09-14T06:54:09.014Z,11.1
2017-09-14T06:55:11.181Z,10.2
2017-09-14T06:56:14.991Z,17.6
2017-09-14T06:57:18.907Z,12.3
2017-09-14T06:58:21.313Z,10.1
2017-09-14T06:59:24.744Z,14.2
2017-09-14T07:00:28.842Z,9.8
2017-09-14T07:01:34.150Z,16.0
2017-09-14T07:02:37.410Z,20.6
2017-09-14T07:03:40.410Z,13.7
2017-09-14T07:04:41.882Z,13.4
2017-09-14T07:05:44.800Z,10.1
2017-09-14T07:06:48.498Z,9.6
2017-09-14T07:07:50.161Z,9.3
2017-09-14T07:08:53.594Z,9.6
2017-09-14T07:09:57.010Z,9.6
2017-09-14T07:10:59.472Z,14.9
2017-09-14T07:12:04.174Z,13.0
2017-09-14T07:13:07.999Z,12.0
2017-09-14T07:14:10.550Z,10.7
2017-09-14T07:15:14.104Z,10.8
2017-09-14T07:16:18.040Z,10.1
2017-09-14T07:17:21.474Z,10.1
2017-09-14T07:18:24.336Z,12.0
2017-09-14T07:19:26.003Z,10.9
2017-09-14T07:20:28.170Z,13.8
2017-09-14T07:21:31.914Z,9.9
2017-09-14T07:22:33.564Z,12.6
2017-09-14T07:23:35.220Z,12.3
2017-09-14T07:24:36.890Z,8.6
2017-09-14T07:25:39.501Z,8.7
2017-09-14T07:26:42.081Z,11.7
2017-09-14T07:27:45.492Z,14.0
2017-09-14T07:28:48.659Z,9.0
2017-09-14T07:29:51.614Z,11.1
2017-09-14T07:30:53.278Z,9.4
2017-09-14T07:31:57.097Z,12.1
2017-09-14T07:33:00.213Z,6.9
2017-09-14T07:34:03.420Z,12.3
2017-09-14T07:35:05.935Z,11.6
2017-09-14T07:36:09.665Z,8.6
2017-09-14T07:37:12.867Z,9.2
2017-09-14T07:38:16.759Z,7.5
2017-09-14T07:39:21.217Z,9.4
2017-09-14T07:40:23.679Z,11.5
2017-09-14T07:41:26.100Z,11.2
2017-09-14T07:42:29.588Z,9.0
2017-09-14T07:43:33.128Z,9.3
2017-09-14T07:44:35.416Z,13.7
2017-09-14T07:45:37.170Z,8.9
2017-09-14T07:46:40.088Z,15.1
2017-09-14T07:47:45.240Z,9.7
2017-09-14T07:48:46.908Z,14.4
2017-09-14T07:49:52.913Z,10.5
2017-09-14T07:50:54.206Z,8.1
2017-09-14T07:51:57.237Z,13.8
2017-09-14T07:52:58.894Z,14.7
2017-09-14T07:54:01.030Z,16.8
2017-09-14T07:55:03.451Z,8.9
2017-09-14T07:56:08.220Z,10.7
2017-09-14T07:57:11.385Z,13.6
2017-09-14T07:58:13.043Z,10.5
2017-09-14T07:59:14.709Z,9.5
2017-09-14T08:00:17.383Z,10.9
2017-09-14T08:01:21.574Z,16.6
2017-09-14T08:02:26.530Z,16.0
2017-09-14T08:03:30.868Z,12.4
2017-09-14T08:04:33.505Z,11.6
2017-09-14T08:05:37.135Z,13.2
2017-09-14T08:06:42.086Z,11.8
2017-09-14T08:07:45.300Z,10.5
2017-09-14T08:08:49.030Z,9.6
2017-09-14T08:09:50.698Z,9.6
2017-09-14T08:10:53.194Z,9.3
2017-09-14T08:11:56.144Z,10.9
2017-09-14T08:12:58.778Z,7.8
2017-09-14T08:14:02.684Z,14.5
2017-09-14T08:15:04.359Z,6.9
2017-09-14T08:16:08.432Z,5.7
2017-09-14T08:17:10.596Z,8.9
2017-09-14T08:18:15.476Z,6.7
2017-09-14T08:19:18.119Z,5.1
2017-09-14T08:20:21.313Z,6.1
2017-09-14T08:21:24.179Z,6.7
2017-09-14T08:22:26.575Z,6.2
2017-09-14T08:23:29.481Z,8.5
2017-09-14T08:24:33.583Z,7.6
2017-09-14T08:25:38.091Z,6.7
2017-09-14T08:26:41.423Z,4.3
2017-09-14T08:27:45.527Z,6.6
2017-09-14T08:28:50.605Z,6.0
2017-09-14T08:29:54.002Z,5.8
2017-09-14T08:30:57.706Z,7.9
2017-09-14T08:32:00.203Z,6.4
2017-09-14T08:33:04.521Z,4.3
2017-09-14T08:34:07.021Z,3.1
2017-09-14T08:35:12.557Z,7.1
2017-09-14T08:36:16.206Z,5.8
2017-09-14T08:37:19.421Z,5.1
2017-09-14T08:38:21.109Z,4.7
2017-09-14T08:39:22.760Z,6.7
2017-09-14T08:40:28.079Z,4.6
2017-09-14T08:41:30.629Z,9.0
2017-09-14T08:42:35.920Z,7.9
2017-09-14T08:43:39.055Z,3.4
2017-09-14T08:44:41.422Z,7.8
2017-09-14T08:45:44.339Z,4.9
2017-09-14T08:46:46.890Z,4.2
2017-09-14T08:47:50.966Z,5.9
2017-09-14T08:48:53.719Z,6.0
2017-09-14T08:49:56.042Z,3.4
2017-09-14T08:50:59.920Z,3.8
2017-09-14T08:52:02.048Z,6.4
2017-09-14T08:53:04.403Z,6.0
2017-09-14T08:54:06.577Z,3.1
2017-09-14T08:55:12.052Z,4.1
2017-09-14T08:56:14.211Z,4.9
2017-09-14T08:57:17.423Z,4.8
2017-09-14T08:58:18.109Z,3.5
2017-09-14T08:59:21.466Z,5.3
2017-09-14T09:00:25.049Z,4.0
2017-09-14T09:01:27.197Z,3.7
2017-09-14T09:02:30.421Z,5.6
2017-09-14T09:03:33.255Z,3.8
2017-09-14T09:04:35.670Z,5.6
2017-09-14T09:05:39.502Z,4.7
2017-09-14T09:06:42.606Z,5.4
2017-09-14T09:07:45.037Z,3.8
2017-09-14T09:08:47.197Z,4.0
2017-09-14T09:09:51.421Z,5.9
2017-09-14T09:10:52.883Z,3.4
2017-09-14T09:11:57.048Z,5.5
2017-09-14T09:13:01.037Z,2.7
2017-09-14T09:14:05.009Z,5.5
2017-09-14T09:15:08.826Z,4.5
2017-09-14T09:16:11.568Z,4.4
2017-09-14T09:17:14.041Z,4.2
2017-09-14T09:18:18.049Z,3.9
2017-09-14T09:19:22.280Z,4.8
2017-09-14T09:20:26.501Z,3.0
2017-09-14T09:21:29.999Z,1.8
2017-09-14T09:22:32.194Z,3.4
2017-09-14T09:23:34.790Z,3.0
2017-09-14T09:24:38.880Z,2.9
2017-09-14T09:25:40.565Z,2.8
2017-09-14T09:26:42.245Z,3.5
2017-09-14T09:27:43.940Z,6.7
2017-09-14T09:28:48.638Z,3.9
2017-09-14T09:29:53.840Z,3.5
2017-09-14T09:31:00.014Z,2.6
2017-09-14T09:32:04.981Z,4.9
2017-09-14T09:33:07.208Z,8.5
2017-09-14T09:34:10.708Z,1.9
2017-09-14T09:35:16.425Z,4.2
2017-09-14T09:36:17.925Z,4.1
2017-09-14T09:37:20.572Z,4.7
2017-09-14T09:38:23.890Z,4.4
2017-09-14T09:39:27.206Z,2.7
2017-09-14T09:40:29.491Z,5.2
2017-09-14T09:41:31.684Z,4.0
2017-09-14T09:42:37.007Z,4.0
2017-09-14T09:43:40.639Z,3.1
2017-09-14T09:44:43.699Z,5.5
2017-09-14T09:45:46.718Z,3.1
2017-09-14T09:46:51.222Z,4.1
2017-09-14T09:47:52.897Z,4.2
2017-09-14T09:48:56.004Z,3.9
2017-09-14T09:49:58.277Z,5.9
2017-09-14T09:51:01.136Z,3.0
2017-09-14T09:52:05.178Z,2.1
2017-09-14T09:53:09.156Z,2.6
2017-09-14T09:54:10.811Z,3.5
2017-09-14T10:01:01.887Z,1.6
2017-09-14T10:02:04.951Z,6.9
2017-09-14T10:03:08.165Z,3.7
2017-09-14T10:04:12.780Z,4.2
2017-09-14T10:05:14.447Z,5.0
2017-09-14T10:06:16.835Z,5.4
2017-09-14T10:07:19.749Z,8.0
2017-09-14T10:08:21.410Z,5.1
2017-09-14T10:09:23.844Z,3.8
2017-09-14T10:10:26.167Z,3.0
2017-09-14T10:11:28.494Z,3.0
2017-09-14T10:12:32.670Z,4.6
2017-09-14T10:13:34.100Z,4.7
2017-09-14T10:14:35.777Z,3.1
2017-09-14T10:15:39.450Z,4.6
2017-09-14T10:16:41.821Z,4.2
2017-09-14T10:17:44.369Z,3.2
2017-09-14T10:18:46.861Z,4.8
2017-09-14T10:19:49.669Z,3.8
2017-09-14T10:20:52.282Z,5.4
2017-09-14T10:21:54.520Z,3.8
2017-09-14T10:22:59.713Z,5.6
2017-09-14T10:24:01.926Z,4.3
2017-09-14T10:25:05.381Z,4.0
2017-09-14T10:26:09.957Z,3.7
2017-09-14T10:27:13.887Z,2.3
2017-09-14T10:28:18.340Z,3.4
2017-09-14T10:29:22.180Z,2.6
2017-09-14T10:30:25.235Z,4.3
2017-09-14T10:31:28.913Z,4.7
2017-09-14T10:32:32.809Z,3.7
2017-09-14T10:33:37.271Z,5.4
2017-09-14T10:34:42.810Z,3.7
2017-09-14T10:35:45.002Z,5.2
2017-09-14T10:36:47.696Z,3.8
2017-09-14T10:37:50.237Z,5.0
2017-09-14T10:38:53.203Z,4.1
2017-09-14T10:39:56.417Z,3.3
2017-09-14T10:41:00.776Z,5.4
2017-09-14T10:42:02.440Z,4.9
2017-09-14T10:43:04.676Z,5.5
2017-09-14T10:44:06.302Z,5.9
2017-09-14T10:45:08.783Z,3.7
2017-09-14T10:46:10.453Z,4.7
2017-09-14T10:47:13.701Z,3.0
2017-09-14T10:48:16.349Z,4.8
2017-09-14T10:49:20.285Z,4.5
2017-09-14T10:50:24.846Z,3.5
2017-09-14T10:51:28.176Z,3.7
2017-09-14T10:52:30.456Z,4.0
2017-09-14T10:53:34.144Z,4.4
2017-09-14T10:54:41.920Z,2.8
2017-09-14T10:55:43.587Z,3.8
2017-09-14T10:56:48.249Z,5.7
2017-09-14T10:57:50.495Z,7.8
2017-09-14T10:58:54.322Z,4.2
2017-09-14T10:59:58.177Z,2.9
2017-09-14T11:01:01.004Z,3.8
2017-09-14T11:02:04.753Z,3.7
2017-09-14T11:03:07.751Z,6.9
2017-09-14T11:04:11.216Z,5.2
2017-09-14T11:05:12.883Z,4.4
2017-09-14T11:06:14.553Z,6.0
2017-09-14T11:07:16.912Z,4.4
2017-09-14T11:08:18.580Z,3.8
2017-09-14T11:09:21.820Z,3.2
2017-09-14T11:10:25.341Z,3.3
2017-09-14T11:11:29.776Z,2.7
2017-09-14T11:12:33.162Z,5.3
2017-09-14T11:13:35.564Z,3.4
2017-09-14T11:14:40.240Z,3.9
2017-09-14T11:15:43.387Z,4.1
2017-09-14T11:16:47.849Z,2.8
2017-09-14T11:17:50.857Z,3.4
2017-09-14T11:18:54.110Z,3.7
2017-09-14T11:19:56.382Z,4.7
2017-09-14T11:21:00.787Z,3.9
2017-09-14T11:22:02.461Z,4.7
2017-09-14T11:23:04.868Z,2.7
2017-09-14T11:24:09.805Z,5.9
2017-09-14T11:25:14.242Z,2.8
2017-09-14T11:26:16.840Z,3.1
2017-09-14T11:27:19.332Z,4.7
2017-09-14T11:28:21.038Z,3.3
2017-09-14T11:29:26.578Z,3.9
2017-09-14T11:30:29.923Z,4.9
2017-09-14T11:31:38.758Z,3.6
2017-09-14T11:32:44.471Z,3.4
2017-09-14T11:33:48.818Z,4.0
2017-09-14T11:34:53.260Z,3.7
2017-09-14T11:35:58.341Z,5.9
2017-09-14T11:37:02.570Z,3.8
2017-09-14T11:38:05.706Z,3.5
2017-09-14T11:39:08.187Z,4.1
2017-09-14T11:40:09.533Z,4.9
2017-09-14T11:41:13.688Z,6.8
2017-09-14T11:42:15.421Z,8.8
2017-09-14T11:43:17.080Z,8.8
2017-09-14T11:44:18.947Z,4.8
2017-09-14T11:45:22.737Z,5.8
2017-09-14T11:46:25.690Z,4.4
2017-09-14T11:47:29.419Z,6.3
2017-09-14T11:48:31.772Z,6.2
2017-09-14T11:49:34.307Z,11.0
2017-09-14T11:50:36.692Z,8.9
2017-09-14T11:51:37.653Z,5.1
2017-09-14T11:52:42.760Z,6.8
2017-09-14T11:53:44.424Z,7.6
2017-09-14T11:54:46.851Z,3.6
2017-09-14T11:55:48.621Z,8.1
2017-09-14T11:56:52.364Z,4.5
2017-09-14T11:57:56.857Z,4.8
2017-09-14T11:59:00.049Z,4.0
2017-09-14T12:00:03.917Z,4.3
2017-09-14T12:01:07.101Z,2.6
2017-09-14T12:02:10.283Z,3.6
2017-09-14T12:03:13.594Z,3.9
2017-09-14T12:04:16.417Z,2.5
2017-09-14T12:05:18.115Z,3.3
2017-09-14T12:06:21.361Z,3.4
2017-09-14T12:07:24.431Z,4.3
2017-09-14T12:08:30.195Z,4.5
2017-09-14T12:09:34.283Z,3.3
2017-09-14T12:10:36.922Z,3.4
2017-09-14T12:11:39.297Z,4.1
2017-09-14T12:12:43.429Z,4.3
2017-09-14T12:13:45.808Z,3.9
2017-09-14T12:14:50.703Z,3.8
2017-09-14T12:15:53.937Z,3.2
2017-09-14T12:16:56.758Z,4.0
2017-09-14T12:17:59.283Z,2.9
2017-09-14T12:19:00.965Z,3.5
2017-09-14T12:20:04.202Z,4.2
2017-09-14T12:21:05.884Z,2.9
2017-09-14T12:22:10.762Z,4.4
2017-09-14T12:23:13.774Z,5.3
2017-09-14T12:24:17.700Z,3.3
2017-09-14T12:25:20.241Z,3.0
2017-09-14T12:26:24.493Z,3.2
2017-09-14T12:27:26.712Z,3.0
2017-09-14T12:28:30.105Z,2.6
2017-09-14T12:29:34.572Z,4.5
2017-09-14T12:30:39.587Z,3.7
2017-09-14T12:31:43.195Z,3.0
2017-09-14T12:32:44.150Z,4.2
2017-09-14T12:33:46.436Z,2.5
2017-09-14T12:34:49.742Z,4.5
2017-09-14T12:35:51.906Z,3.4
2017-09-14T12:36:54.536Z,4.1
2017-09-14T12:37:56.920Z,3.6
2017-09-14T12:39:00.255Z,4.9
2017-09-14T12:40:01.916Z,2.1
2017-09-14T12:41:04.940Z,3.7
2017-09-14T12:42:06.615Z,5.0
2017-09-14T12:43:09.687Z,4.4
2017-09-14T12:44:11.879Z,2.7
2017-09-14T12:45:16.705Z,3.2
2017-09-14T12:46:17.459Z,4.1
2017-09-14T12:47:22.474Z,2.4
2017-09-14T12:48:24.801Z,2.7
2017-09-14T12:49:28.229Z,2.6
2017-09-14T12:50:31.197Z,4.2
2017-09-14T12:51:34.895Z,3.2
2017-09-14T12:52:36.555Z,3.2
2017-09-14T12:53:40.472Z,4.1
2017-09-14T12:54:45.200Z,1.9
2017-09-14T12:55:45.977Z,2.6
2017-09-14T12:56:48.299Z,5.9
2017-09-14T12:57:51.205Z,5.3
2017-09-14T12:58:53.183Z,2.0
2017-09-14T12:59:57.387Z,2.8
2017-09-14T13:01:02.746Z,4.9
2017-09-14T13:02:06.524Z,3.7
2017-09-14T13:03:08.188Z,5.1
2017-09-14T13:04:11.575Z,3.1
2017-09-14T13:05:14.650Z,4.5
2017-09-14T13:06:16.810Z,5.7
2017-09-14T13:07:19.293Z,2.9
2017-09-14T13:08:20.965Z,2.6
2017-09-14T13:09:24.210Z,3.3
2017-09-14T13:10:27.711Z,4.3
2017-09-14T13:11:30.838Z,2.1
2017-09-14T13:12:34.653Z,3.4
2017-09-14T13:13:37.704Z,2.3
2017-09-14T13:14:39.976Z,3.8
2017-09-14T13:15:43.332Z,3.7
2017-09-14T13:16:46.560Z,3.4
2017-09-14T13:17:50.463Z,4.5
2017-09-14T13:18:53.715Z,2.8
2017-09-14T13:19:55.505Z,3.8
2017-09-14T13:20:58.449Z,4.1
2017-09-14T13:22:00.132Z,4.5
2017-09-14T13:23:04.271Z,4.1
2017-09-14T13:24:06.786Z,2.9
2017-09-14T13:25:08.452Z,3.9
2017-09-14T13:26:11.043Z,3.5
2017-09-14T13:27:14.531Z,2.9
2017-09-14T13:28:17.601Z,3.7
2017-09-14T13:29:19.271Z,5.2
2017-09-14T13:30:21.830Z,5.6
2017-09-14T13:31:25.259Z,3.4
2017-09-14T13:32:29.214Z,3.9
2017-09-14T13:33:30.935Z,4.8
2017-09-14T13:34:34.478Z,3.8
2017-09-14T13:35:37.780Z,3.0
2017-09-14T13:36:40.209Z,3.5
2017-09-14T13:37:42.633Z,3.3
2017-09-14T13:38:44.297Z,4.0
2017-09-14T13:39:48.345Z,5.3
2017-09-14T13:40:50.013Z,4.6
2017-09-14T13:41:54.712Z,3.8
2017-09-14T13:42:55.614Z,3.7
2017-09-14T13:43:58.045Z,4.8
2017-09-14T13:45:01.712Z,3.2
2017-09-14T13:46:04.621Z,2.8
2017-09-14T13:47:09.214Z,4.4
2017-09-14T13:48:10.473Z,5.9
2017-09-14T13:49:13.541Z,5.8
2017-09-14T13:50:16.783Z,4.0
2017-09-14T13:51:18.441Z,5.7
2017-09-14T13:52:20.134Z,3.6
2017-09-14T13:53:22.579Z,4.3
2017-09-14T13:54:24.249Z,5.9
2017-09-14T13:55:26.492Z,4.8
2017-09-14T14:01:52.385Z,2.8
2017-09-14T14:02:56.365Z,5.1
2017-09-14T14:03:59.652Z,4.5
2017-09-14T14:05:02.946Z,3.5
2017-09-14T14:06:06.547Z,3.3
2017-09-14T14:07:08.814Z,2.3
2017-09-14T14:08:11.095Z,4.7
2017-09-14T14:09:13.237Z,2.6
2017-09-14T14:10:15.398Z,2.1
2017-09-14T14:11:17.867Z,4.4
2017-09-14T14:12:18.681Z,4.4
2017-09-14T14:13:21.198Z,3.6
2017-09-14T14:14:25.008Z,4.6
2017-09-14T14:15:29.593Z,4.5
2017-09-14T14:16:32.364Z,3.2
2017-09-14T14:17:33.705Z,3.5
2017-09-14T14:18:36.802Z,5.2
2017-09-14T14:19:41.831Z,2.4
2017-09-14T14:20:44.054Z,3.2
2017-09-14T14:21:49.815Z,4.0
2017-09-14T14:22:53.533Z,4.5
2017-09-14T14:23:55.876Z,3.7
2017-09-14T14:24:59.617Z,4.8
2017-09-14T14:26:04.558Z,2.1
2017-09-14T14:27:06.967Z,3.8
2017-09-14T14:28:08.628Z,3.4
2017-09-14T14:29:11.640Z,2.8
2017-09-14T14:30:13.330Z,3.0
2017-09-14T14:31:16.901Z,4.1
2017-09-14T14:32:19.869Z,3.7
2017-09-14T14:33:21.619Z,1.9
2017-09-14T14:34:25.043Z,3.3
2017-09-14T14:35:27.463Z,3.3
2017-09-14T14:36:29.131Z,4.6
2017-09-14T14:37:31.226Z,6.6
2017-09-14T14:38:34.366Z,2.4
2017-09-14T14:39:37.062Z,2.7
2017-09-14T14:40:40.154Z,5.5
2017-09-14T14:41:43.497Z,4.2
2017-09-14T14:42:46.549Z,4.9
2017-09-14T14:43:48.940Z,5.4
2017-09-14T14:44:52.571Z,7.8
2017-09-14T14:45:56.023Z,3.6
2017-09-14T14:47:00.912Z,3.0
2017-09-14T14:48:03.423Z,4.9
2017-09-14T14:49:09.462Z,6.3
2017-09-14T14:50:14.026Z,4.9
2017-09-14T14:51:16.303Z,3.9
2017-09-14T14:52:19.992Z,5.2
2017-09-14T14:53:24.266Z,3.8
2017-09-14T14:54:27.278Z,4.7
2017-09-14T14:55:29.961Z,5.9
2017-09-14T14:56:33.369Z,5.1
2017-09-14T14:57:35.979Z,5.9
2017-09-14T14:58:39.089Z,2.9
2017-09-14T14:59:43.942Z,3.1
2017-09-14T15:00:45.594Z,3.4
2017-09-14T15:01:48.468Z,5.6
2017-09-14T15:02:52.961Z,2.8
2017-09-14T15:03:57.881Z,2.4
2017-09-14T15:04:59.581Z,3.4
2017-09-14T15:06:03.000Z,4.9
2017-09-14T15:07:05.408Z,4.7
2017-09-14T15:08:09.373Z,3.9
2017-09-14T15:09:12.422Z,3.4
2017-09-14T15:10:14.954Z,5.1
2017-09-14T15:11:19.458Z,2.9
2017-09-14T15:12:23.373Z,3.8
2017-09-14T15:13:27.372Z,3.1
2017-09-14T15:14:29.514Z,4.2
2017-09-14T15:15:32.017Z,2.6
2017-09-14T15:16:36.120Z,3.3
2017-09-14T15:17:39.515Z,4.0
2017-09-14T15:18:42.099Z,3.2
2017-09-14T15:19:47.376Z,2.5
2017-09-14T15:20:49.736Z,3.8
2017-09-14T15:21:51.393Z,5.4
2017-09-14T15:22:56.205Z,3.4
2017-09-14T15:24:02.379Z,3.2
2017-09-14T15:25:05.969Z,3.2
2017-09-14T15:26:10.502Z,2.7
2017-09-14T15:27:14.258Z,3.9
2017-09-14T15:28:16.832Z,4.7
2017-09-14T15:29:19.560Z,5.1
2017-09-14T15:30:22.365Z,3.6
2017-09-14T15:36:03.046Z,4.2
2017-09-14T15:37:05.647Z,5.0
2017-09-14T15:38:08.162Z,3.8
2017-09-14T15:39:11.647Z,6.1
2017-09-14T15:40:13.753Z,6.2
2017-09-14T15:41:16.222Z,4.5
2017-09-14T15:42:18.612Z,3.3
2017-09-14T15:43:23.519Z,3.8
2017-09-14T15:44:30.393Z,4.3
2017-09-14T15:45:33.514Z,2.9
2017-09-14T15:46:35.732Z,3.8
2017-09-14T15:47:39.034Z,3.8
2017-09-14T15:48:42.056Z,2.6
2017-09-14T15:49:46.394Z,3.0
2017-09-14T15:50:48.891Z,2.8
2017-09-14T15:51:51.066Z,4.4
2017-09-14T15:52:54.901Z,4.2
2017-09-14T15:53:56.488Z,2.8
2017-09-14T15:54:59.536Z,4.6
2017-09-14T15:56:01.206Z,2.8
2017-09-14T15:57:03.708Z,4.1
2017-09-14T15:58:08.006Z,3.5
2017-09-14T15:59:12.697Z,3.4
2017-09-14T16:00:15.983Z,4.3
2017-09-14T16:01:21.064Z,6.9
2017-09-14T16:02:24.283Z,5.0
2017-09-14T16:03:31.250Z,5.7
2017-09-14T16:04:33.338Z,3.6
2017-09-14T16:05:36.231Z,2.3
2017-09-14T16:06:37.896Z,3.5
2017-09-14T16:07:42.959Z,5.2
2017-09-14T16:08:46.933Z,2.7
2017-09-14T16:09:50.170Z,2.3
2017-09-14T16:10:51.975Z,4.8
2017-09-14T16:11:54.722Z,3.1
2017-09-14T16:12:58.509Z,3.2
2017-09-14T16:14:02.889Z,3.7
2017-09-14T16:15:05.563Z,3.7
2017-09-14T16:16:08.115Z,3.7
2017-09-14T16:17:10.729Z,2.8
2017-09-14T16:18:14.043Z,4.3
2017-09-14T16:19:15.736Z,5.4
2017-09-14T16:20:17.412Z,2.5
2017-09-14T16:21:19.761Z,2.2
2017-09-14T16:22:23.234Z,2.8
2017-09-14T16:23:24.876Z,2.8
2017-09-14T16:24:27.282Z,4.0
2017-09-14T16:25:31.491Z,4.0
2017-09-14T16:26:33.775Z,2.9
2017-09-14T16:27:36.197Z,3.7
2017-09-14T16:28:41.393Z,2.3
2017-09-14T16:29:44.026Z,3.2
2017-09-14T16:30:45.687Z,3.8
2017-09-14T16:31:49.177Z,3.3
2017-09-14T16:32:53.065Z,2.3
2017-09-14T16:33:55.461Z,2.6
2017-09-14T16:34:58.391Z,3.1
2017-09-14T16:36:01.671Z,2.9
2017-09-14T16:37:04.758Z,2.7
2017-09-14T16:38:09.103Z,2.3
2017-09-14T16:39:12.024Z,2.7
2017-09-14T16:40:14.226Z,2.5
2017-09-14T16:41:17.591Z,4.7
2017-09-14T16:42:21.393Z,3.8
2017-09-14T16:43:23.512Z,2.7
2017-09-14T16:44:27.989Z,2.4
2017-09-14T16:45:31.898Z,2.2
2017-09-14T16:46:34.397Z,2.7
2017-09-14T16:47:35.209Z,2.1
2017-09-14T16:48:40.065Z,2.6
2017-09-14T16:49:41.727Z,3.3
2017-09-14T16:50:46.132Z,3.9
2017-09-14T16:51:49.108Z,2.4
2017-09-14T16:52:51.396Z,2.7
2017-09-14T16:53:53.276Z,3.0
2017-09-14T16:54:55.892Z,2.7
2017-09-14T16:55:56.549Z,1.6
2017-09-14T16:57:01.635Z,2.1
2017-09-14T16:58:04.945Z,2.6
2017-09-14T16:59:07.160Z,1.9
2017-09-14T17:00:09.728Z,3.1
2017-09-14T17:01:11.995Z,2.2
2017-09-14T17:02:14.531Z,2.3
2017-09-14T17:03:16.905Z,1.3
2017-09-14T17:04:19.404Z,2.2
2017-09-14T17:05:23.184Z,1.7
2017-09-14T17:06:26.582Z,1.5
2017-09-14T17:07:29.896Z,3.1
2017-09-14T17:08:31.171Z,5.2
2017-09-14T17:09:35.326Z,3.3
2017-09-14T17:10:38.619Z,4.6
2017-09-14T17:11:42.424Z,3.2
2017-09-14T17:12:45.032Z,3.6
2017-09-14T17:13:49.895Z,1.7
2017-09-14T17:14:52.895Z,1.5
2017-09-14T17:15:57.011Z,1.4
2017-09-14T17:17:00.457Z,1.3
2017-09-14T17:18:04.629Z,1.8
2017-09-14T17:19:08.952Z,2.0
2017-09-14T17:20:10.621Z,1.6
2017-09-14T17:21:13.987Z,2.6
2017-09-14T17:22:16.567Z,2.1
2017-09-14T17:23:19.070Z,2.9
2017-09-14T17:24:20.726Z,2.7
2017-09-14T17:25:23.538Z,2.3
2017-09-14T17:26:26.605Z,2.4
2017-09-14T17:27:29.725Z,2.0
2017-09-14T17:28:33.144Z,1.7
2017-09-14T17:29:36.396Z,2.7
2017-09-14T17:30:38.237Z,1.7
2017-09-14T17:31:40.657Z,2.3
2017-09-14T17:32:43.460Z,2.9
2017-09-14T17:33:46.397Z,1.7
2017-09-14T17:34:49.057Z,2.1
2017-09-14T17:35:51.297Z,1.6
2017-09-14T17:36:54.637Z,5.8
2017-09-14T17:37:57.148Z,2.2
2017-09-14T17:38:59.460Z,1.4
2017-09-14T17:40:04.657Z,1.8
2017-09-14T17:41:07.041Z,2.2
2017-09-14T17:42:09.484Z,2.3
2017-09-14T17:43:13.036Z,2.0
2017-09-14T17:44:18.636Z,2.3
2017-09-14T17:45:21.138Z,1.4
2017-09-14T17:46:27.455Z,3.4
2017-09-14T17:47:30.145Z,1.8
2017-09-14T17:48:34.774Z,1.4
2017-09-14T17:49:37.521Z,1.7
2017-09-14T17:50:39.953Z,2.3
2017-09-14T17:51:44.406Z,1.6
2017-09-14T17:52:46.156Z,1.6
2017-09-14T17:53:51.904Z,1.9
2017-09-14T17:54:54.329Z,1.9
2017-09-14T18:01:30.113Z,1.0
2017-09-14T18:02:31.744Z,1.1
2017-09-14T18:03:36.872Z,1.6
2017-09-14T18:04:40.449Z,2.3
2017-09-14T18:05:45.689Z,2.5
2017-09-14T18:06:47.818Z,1.8
2017-09-14T18:07:49.630Z,2.5
2017-09-14T18:08:54.043Z,2.2
2017-09-14T18:09:57.991Z,5.1
2017-09-14T18:11:00.819Z,2.1
2017-09-14T18:12:06.505Z,1.9
2017-09-14T18:13:09.327Z,2.0
2017-09-14T18:14:11.940Z,1.5
2017-09-14T18:15:16.693Z,2.3
2017-09-14T18:16:20.294Z,2.7
2017-09-14T18:17:22.302Z,3.2
2017-09-14T18:18:26.820Z,2.5
2017-09-14T18:19:30.188Z,2.5
2017-09-14T18:20:33.457Z,2.3
2017-09-14T18:21:39.261Z,1.4
2017-09-14T18:22:42.702Z,1.4
2017-09-14T18:23:48.768Z,1.3
2017-09-14T18:24:51.368Z,2.2
2017-09-14T18:25:55.527Z,2.3
2017-09-14T18:26:58.698Z,1.9
2017-09-14T18:28:04.187Z,2.2
2017-09-14T18:29:06.178Z,3.0
2017-09-14T18:30:08.658Z,2.1
2017-09-14T18:31:11.710Z,2.2
2017-09-14T18:32:16.288Z,1.8
2017-09-14T18:33:20.255Z,2.2
2017-09-14T18:34:31.193Z,1.5
2017-09-14T18:35:33.486Z,1.7
2017-09-14T18:36:36.189Z,2.4
2017-09-14T18:37:38.613Z,1.1
2017-09-14T18:38:42.309Z,2.2
2017-09-14T18:39:45.008Z,1.1
2017-09-14T18:40:49.311Z,1.3
2017-09-14T18:41:51.912Z,3.2
2017-09-14T18:42:55.469Z,3.7
2017-09-14T18:43:58.105Z,2.3
2017-09-14T18:45:02.188Z,2.5
2017-09-14T18:46:04.003Z,1.6
2017-09-14T18:47:06.774Z,1.9
2017-09-14T18:48:10.027Z,1.9
2017-09-14T18:49:11.800Z,2.1
2017-09-14T18:50:16.311Z,1.4
2017-09-14T18:51:18.590Z,2.9